sensor_id;sensor_type;location;lat;lon;timestamp;P1;durP1;ratioP1;P2;durP2;ratioP2
19879;SDS011;10102;50.828;4.416;2023-02-01T00:00:21;29.33;;;10.85;;
19879;SDS011;10102;50.828;4.416;2023-02-01T00:02:47;37.13;;;11.73;;
19879;SDS011;10102;50.828;4.416;2023-02-01T00:05:14;27.00;;;11.43;;
19879;SDS011;10102;50.828;4.416;2023-02-01T00:07:41;23.00;;;11.18;;
19879;SDS011;10102;50.828;4.416;2023-02-01T00:10:08;31.27;;;12.35;;
19879;SDS011;10102;50.828;4.416;2023-02-01T00:12:36;27.05;;;11.35;;
19879;SDS011;10102;50.828;4.416;2023-02-01T00:15:02;20.85;;;10.05;;
19879;SDS011;10102;50.828;4.416;2023-02-01T00:17:29;28.63;;;10.25;;
19879;SDS011;10102;50.828;4.416;2023-02-01T00:19:56;27.75;;;10.80;;
19879;SDS011;10102;50.828;4.416;2023-02-01T00:22:21;24.38;;;10.30;;
19879;SDS011;10102;50.828;4.416;2023-02-01T00:24:53;23.75;;;11.05;;
19879;SDS011;10102;50.828;4.416;2023-02-01T00:27:20;25.23;;;10.15;;
19879;SDS011;10102;50.828;4.416;2023-02-01T00:29:46;26.05;;;11.13;;
19879;SDS011;10102;50.828;4.416;2023-02-01T00:32:12;31.27;;;11.02;;
19879;SDS011;10102;50.828;4.416;2023-02-01T00:34:38;28.58;;;10.20;;
19879;SDS011;10102;50.828;4.416;2023-02-01T00:37:04;28.92;;;10.93;;
19879;SDS011;10102;50.828;4.416;2023-02-01T00:39:32;25.98;;;10.05;;
19879;SDS011;10102;50.828;4.416;2023-02-01T00:42:00;30.83;;;10.05;;
19879;SDS011;10102;50.828;4.416;2023-02-01T00:44:29;25.25;;;9.73;;
19879;SDS011;10102;50.828;4.416;2023-02-01T00:46:58;28.67;;;9.10;;
19879;SDS011;10102;50.828;4.416;2023-02-01T00:49:24;22.77;;;9.70;;
19879;SDS011;10102;50.828;4.416;2023-02-01T00:51:52;32.50;;;9.13;;
19879;SDS011;10102;50.828;4.416;2023-02-01T00:54:19;34.83;;;9.68;;
19879;SDS011;10102;50.828;4.416;2023-02-01T00:56:44;21.63;;;8.43;;
19879;SDS011;10102;50.828;4.416;2023-02-01T00:59:11;17.23;;;8.63;;
19879;SDS011;10102;50.828;4.416;2023-02-01T01:01:39;24.65;;;8.25;;
19879;SDS011;10102;50.828;4.416;2023-02-01T01:04:05;26.35;;;8.23;;
19879;SDS011;10102;50.828;4.416;2023-02-01T01:06:33;31.52;;;8.40;;
19879;SDS011;10102;50.828;4.416;2023-02-01T01:09:00;31.77;;;8.75;;
19879;SDS011;10102;50.828;4.416;2023-02-01T01:11:29;23.33;;;8.18;;
19879;SDS011;10102;50.828;4.416;2023-02-01T01:13:58;21.38;;;7.82;;
19879;SDS011;10102;50.828;4.416;2023-02-01T01:16:25;28.10;;;8.00;;
19879;SDS011;10102;50.828;4.416;2023-02-01T01:18:54;20.15;;;6.93;;
19879;SDS011;10102;50.828;4.416;2023-02-01T01:21:21;23.50;;;7.00;;
19879;SDS011;10102;50.828;4.416;2023-02-01T01:23:48;20.23;;;6.40;;
19879;SDS011;10102;50.828;4.416;2023-02-01T01:26:17;16.25;;;6.45;;
19879;SDS011;10102;50.828;4.416;2023-02-01T01:28:47;18.40;;;5.97;;
19879;SDS011;10102;50.828;4.416;2023-02-01T01:31:17;20.92;;;6.30;;
19879;SDS011;10102;50.828;4.416;2023-02-01T01:33:43;24.55;;;5.95;;
19879;SDS011;10102;50.828;4.416;2023-02-01T01:36:13;18.95;;;5.88;;
19879;SDS011;10102;50.828;4.416;2023-02-01T01:38:41;17.63;;;5.43;;
19879;SDS011;10102;50.828;4.416;2023-02-01T01:41:18;22.63;;;6.28;;
19879;SDS011;10102;50.828;4.416;2023-02-01T01:43:48;27.13;;;5.28;;
19879;SDS011;10102;50.828;4.416;2023-02-01T01:46:18;26.77;;;4.88;;
19879;SDS011;10102;50.828;4.416;2023-02-01T01:48:45;27.75;;;5.45;;
19879;SDS011;10102;50.828;4.416;2023-02-01T01:51:19;14.75;;;5.22;;
19879;SDS011;10102;50.828;4.416;2023-02-01T01:53:54;22.65;;;4.72;;
19879;SDS011;10102;50.828;4.416;2023-02-01T01:56:52;18.70;;;4.50;;
19879;SDS011;10102;50.828;4.416;2023-02-01T01:59:23;24.30;;;4.75;;
19879;SDS011;10102;50.828;4.416;2023-02-01T02:01:50;23.38;;;4.80;;
19879;SDS011;10102;50.828;4.416;2023-02-01T02:04:19;17.52;;;4.47;;
19879;SDS011;10102;50.828;4.416;2023-02-01T02:09:20;19.70;;;4.28;;
19879;SDS011;10102;50.828;4.416;2023-02-01T02:11:47;19.23;;;4.15;;
19879;SDS011;10102;50.828;4.416;2023-02-01T02:14:13;24.40;;;4.78;;
19879;SDS011;10102;50.828;4.416;2023-02-01T02:22:18;17.08;;;3.97;;
19879;SDS011;10102;50.828;4.416;2023-02-01T02:42:02;14.70;;;4.55;;
19879;SDS011;10102;50.828;4.416;2023-02-01T02:47:54;15.50;;;4.30;;
19879;SDS011;10102;50.828;4.416;2023-02-01T02:50:48;15.18;;;3.97;;
19879;SDS011;10102;50.828;4.416;2023-02-01T02:54:07;14.68;;;3.67;;
19879;SDS011;10102;50.828;4.416;2023-02-01T02:56:50;21.40;;;4.13;;
19879;SDS011;10102;50.828;4.416;2023-02-01T02:59:38;21.25;;;4.43;;
19879;SDS011;10102;50.828;4.416;2023-02-01T03:02:26;17.70;;;3.42;;
19879;SDS011;10102;50.828;4.416;2023-02-01T03:05:10;16.73;;;4.60;;
19879;SDS011;10102;50.828;4.416;2023-02-01T03:21:41;20.38;;;4.70;;
19879;SDS011;10102;50.828;4.416;2023-02-01T03:24:20;22.67;;;4.00;;
19879;SDS011;10102;50.828;4.416;2023-02-01T03:27:06;16.35;;;3.83;;
19879;SDS011;10102;50.828;4.416;2023-02-01T03:29:38;18.20;;;3.78;;
19879;SDS011;10102;50.828;4.416;2023-02-01T03:32:14;20.95;;;4.82;;
19879;SDS011;10102;50.828;4.416;2023-02-01T03:34:41;14.90;;;4.03;;
19879;SDS011;10102;50.828;4.416;2023-02-01T03:37:10;18.73;;;4.07;;
19879;SDS011;10102;50.828;4.416;2023-02-01T03:42:40;16.15;;;3.47;;
19879;SDS011;10102;50.828;4.416;2023-02-01T03:45:22;22.48;;;4.25;;
19879;SDS011;10102;50.828;4.416;2023-02-01T03:47:50;19.10;;;4.13;;
19879;SDS011;10102;50.828;4.416;2023-02-01T03:50:20;16.98;;;4.45;;
19879;SDS011;10102;50.828;4.416;2023-02-01T03:53:09;11.45;;;3.30;;
19879;SDS011;10102;50.828;4.416;2023-02-01T03:55:40;21.23;;;3.88;;
19879;SDS011;10102;50.828;4.416;2023-02-01T03:58:09;16.10;;;3.92;;
19879;SDS011;10102;50.828;4.416;2023-02-01T04:00:38;13.50;;;3.55;;
19879;SDS011;10102;50.828;4.416;2023-02-01T04:03:07;15.90;;;3.92;;
19879;SDS011;10102;50.828;4.416;2023-02-01T04:05:34;23.77;;;3.70;;
19879;SDS011;10102;50.828;4.416;2023-02-01T04:08:01;20.67;;;4.07;;
19879;SDS011;10102;50.828;4.416;2023-02-01T04:10:27;16.38;;;4.45;;
19879;SDS011;10102;50.828;4.416;2023-02-01T04:12:53;20.90;;;4.38;;
19879;SDS011;10102;50.828;4.416;2023-02-01T04:15:19;14.48;;;3.72;;
19879;SDS011;10102;50.828;4.416;2023-02-01T04:17:48;21.67;;;4.47;;
19879;SDS011;10102;50.828;4.416;2023-02-01T04:20:15;25.40;;;4.35;;
19879;SDS011;10102;50.828;4.416;2023-02-01T04:22:43;20.98;;;4.22;;
19879;SDS011;10102;50.828;4.416;2023-02-01T04:25:09;18.33;;;3.58;;
19879;SDS011;10102;50.828;4.416;2023-02-01T04:27:36;21.88;;;5.13;;
19879;SDS011;10102;50.828;4.416;2023-02-01T04:30:05;25.92;;;3.90;;
19879;SDS011;10102;50.828;4.416;2023-02-01T04:32:36;30.98;;;5.07;;
19879;SDS011;10102;50.828;4.416;2023-02-01T04:35:02;17.52;;;3.92;;
19879;SDS011;10102;50.828;4.416;2023-02-01T04:37:31;23.95;;;4.53;;
19879;SDS011;10102;50.828;4.416;2023-02-01T04:39:57;19.50;;;4.63;;
19879;SDS011;10102;50.828;4.416;2023-02-01T04:42:25;21.50;;;4.55;;
19879;SDS011;10102;50.828;4.416;2023-02-01T04:44:51;18.73;;;4.20;;
19879;SDS011;10102;50.828;4.416;2023-02-01T04:47:17;21.05;;;3.63;;
19879;SDS011;10102;50.828;4.416;2023-02-01T04:49:45;21.90;;;4.47;;
19879;SDS011;10102;50.828;4.416;2023-02-01T04:52:11;22.85;;;4.00;;
19879;SDS011;10102;50.828;4.416;2023-02-01T04:54:37;16.88;;;3.70;;
19879;SDS011;10102;50.828;4.416;2023-02-01T04:57:03;27.95;;;4.32;;
19879;SDS011;10102;50.828;4.416;2023-02-01T04:59:30;29.98;;;4.72;;
19879;SDS011;10102;50.828;4.416;2023-02-01T05:01:56;17.17;;;3.70;;
19879;SDS011;10102;50.828;4.416;2023-02-01T05:04:22;23.00;;;4.13;;
19879;SDS011;10102;50.828;4.416;2023-02-01T05:06:50;30.73;;;4.28;;
19879;SDS011;10102;50.828;4.416;2023-02-01T05:09:16;19.15;;;3.83;;
19879;SDS011;10102;50.828;4.416;2023-02-01T05:11:42;16.23;;;4.03;;
19879;SDS011;10102;50.828;4.416;2023-02-01T05:14:26;19.63;;;4.28;;
19879;SDS011;10102;50.828;4.416;2023-02-01T05:16:53;15.98;;;4.22;;
19879;SDS011;10102;50.828;4.416;2023-02-01T05:19:19;11.40;;;3.92;;
19879;SDS011;10102;50.828;4.416;2023-02-01T05:21:44;18.63;;;3.90;;
19879;SDS011;10102;50.828;4.416;2023-02-01T05:24:10;19.25;;;3.95;;
19879;SDS011;10102;50.828;4.416;2023-02-01T05:26:44;18.02;;;4.20;;
19879;SDS011;10102;50.828;4.416;2023-02-01T05:29:17;14.23;;;4.45;;
19879;SDS011;10102;50.828;4.416;2023-02-01T05:31:47;15.35;;;3.75;;
19879;SDS011;10102;50.828;4.416;2023-02-01T05:34:14;14.70;;;4.05;;
19879;SDS011;10102;50.828;4.416;2023-02-01T05:36:46;18.55;;;3.75;;
19879;SDS011;10102;50.828;4.416;2023-02-01T05:39:13;20.05;;;4.18;;
19879;SDS011;10102;50.828;4.416;2023-02-01T05:41:40;23.30;;;4.15;;
19879;SDS011;10102;50.828;4.416;2023-02-01T05:44:07;13.43;;;4.32;;
19879;SDS011;10102;50.828;4.416;2023-02-01T05:46:36;21.67;;;3.75;;
19879;SDS011;10102;50.828;4.416;2023-02-01T05:49:08;21.98;;;3.78;;
19879;SDS011;10102;50.828;4.416;2023-02-01T05:51:40;22.38;;;4.03;;
19879;SDS011;10102;50.828;4.416;2023-02-01T05:56:36;17.88;;;3.30;;
19879;SDS011;10102;50.828;4.416;2023-02-01T05:59:04;27.40;;;4.32;;
19879;SDS011;10102;50.828;4.416;2023-02-01T06:01:29;14.63;;;3.67;;
19879;SDS011;10102;50.828;4.416;2023-02-01T06:03:57;17.25;;;3.95;;
19879;SDS011;10102;50.828;4.416;2023-02-01T06:06:24;22.50;;;3.97;;
19879;SDS011;10102;50.828;4.416;2023-02-01T06:08:49;23.45;;;4.50;;
19879;SDS011;10102;50.828;4.416;2023-02-01T06:11:15;17.02;;;3.75;;
19879;SDS011;10102;50.828;4.416;2023-02-01T06:13:42;18.77;;;3.72;;
19879;SDS011;10102;50.828;4.416;2023-02-01T06:16:07;25.48;;;4.10;;
19879;SDS011;10102;50.828;4.416;2023-02-01T06:18:34;30.05;;;4.22;;
19879;SDS011;10102;50.828;4.416;2023-02-01T06:21:01;19.50;;;3.50;;
19879;SDS011;10102;50.828;4.416;2023-02-01T06:23:29;22.23;;;4.03;;
19879;SDS011;10102;50.828;4.416;2023-02-01T06:26:02;16.15;;;4.00;;
19879;SDS011;10102;50.828;4.416;2023-02-01T06:28:30;25.95;;;4.13;;
19879;SDS011;10102;50.828;4.416;2023-02-01T06:31:02;22.45;;;4.20;;
19879;SDS011;10102;50.828;4.416;2023-02-01T06:33:35;17.50;;;3.78;;
19879;SDS011;10102;50.828;4.416;2023-02-01T06:36:03;18.42;;;3.90;;
19879;SDS011;10102;50.828;4.416;2023-02-01T06:38:31;19.52;;;4.28;;
19879;SDS011;10102;50.828;4.416;2023-02-01T06:41:00;12.25;;;3.10;;
19879;SDS011;10102;50.828;4.416;2023-02-01T06:43:26;14.93;;;3.92;;
19879;SDS011;10102;50.828;4.416;2023-02-01T06:45:53;19.63;;;3.78;;
19879;SDS011;10102;50.828;4.416;2023-02-01T06:48:24;21.20;;;4.15;;
19879;SDS011;10102;50.828;4.416;2023-02-01T06:50:50;24.25;;;3.70;;
19879;SDS011;10102;50.828;4.416;2023-02-01T06:53:16;22.15;;;4.45;;
19879;SDS011;10102;50.828;4.416;2023-02-01T06:56:04;17.70;;;3.30;;
19879;SDS011;10102;50.828;4.416;2023-02-01T06:58:30;17.70;;;4.22;;
19879;SDS011;10102;50.828;4.416;2023-02-01T07:00:57;18.15;;;4.07;;
19879;SDS011;10102;50.828;4.416;2023-02-01T07:03:24;23.05;;;5.00;;
19879;SDS011;10102;50.828;4.416;2023-02-01T07:05:55;20.02;;;4.05;;
19879;SDS011;10102;50.828;4.416;2023-02-01T07:08:24;16.02;;;4.35;;
19879;SDS011;10102;50.828;4.416;2023-02-01T07:10:52;16.27;;;3.47;;
19879;SDS011;10102;50.828;4.416;2023-02-01T07:13:18;20.23;;;4.32;;
19879;SDS011;10102;50.828;4.416;2023-02-01T07:15:44;21.95;;;3.92;;
19879;SDS011;10102;50.828;4.416;2023-02-01T07:21:27;24.25;;;4.35;;
19879;SDS011;10102;50.828;4.416;2023-02-01T07:23:54;20.38;;;4.22;;
19879;SDS011;10102;50.828;4.416;2023-02-01T07:26:22;17.13;;;4.75;;
19879;SDS011;10102;50.828;4.416;2023-02-01T07:28:48;21.05;;;4.22;;
19879;SDS011;10102;50.828;4.416;2023-02-01T07:31:14;20.52;;;4.30;;
19879;SDS011;10102;50.828;4.416;2023-02-01T07:33:47;19.25;;;3.83;;
19879;SDS011;10102;50.828;4.416;2023-02-01T07:36:16;13.60;;;3.63;;
19879;SDS011;10102;50.828;4.416;2023-02-01T07:38:43;25.67;;;5.03;;
19879;SDS011;10102;50.828;4.416;2023-02-01T07:41:09;21.00;;;4.53;;
19879;SDS011;10102;50.828;4.416;2023-02-01T07:43:35;28.45;;;4.35;;
19879;SDS011;10102;50.828;4.416;2023-02-01T07:46:01;19.45;;;4.53;;
19879;SDS011;10102;50.828;4.416;2023-02-01T07:48:28;28.67;;;4.40;;
19879;SDS011;10102;50.828;4.416;2023-02-01T07:51:00;22.52;;;4.20;;
19879;SDS011;10102;50.828;4.416;2023-02-01T07:53:28;28.30;;;4.75;;
19879;SDS011;10102;50.828;4.416;2023-02-01T07:55:57;16.75;;;4.32;;
19879;SDS011;10102;50.828;4.416;2023-02-01T07:58:23;30.08;;;4.93;;
19879;SDS011;10102;50.828;4.416;2023-02-01T08:00:51;19.98;;;4.50;;
19879;SDS011;10102;50.828;4.416;2023-02-01T08:03:36;21.50;;;4.20;;
19879;SDS011;10102;50.828;4.416;2023-02-01T08:06:03;25.50;;;4.88;;
19879;SDS011;10102;50.828;4.416;2023-02-01T08:08:30;25.73;;;4.50;;
19879;SDS011;10102;50.828;4.416;2023-02-01T08:10:59;21.15;;;4.43;;
19879;SDS011;10102;50.828;4.416;2023-02-01T08:13:29;21.23;;;4.55;;
19879;SDS011;10102;50.828;4.416;2023-02-01T08:15:58;21.30;;;5.13;;
19879;SDS011;10102;50.828;4.416;2023-02-01T08:18:31;18.70;;;4.45;;
19879;SDS011;10102;50.828;4.416;2023-02-01T08:21:10;31.10;;;5.25;;
19879;SDS011;10102;50.828;4.416;2023-02-01T08:23:37;30.98;;;4.47;;
19879;SDS011;10102;50.828;4.416;2023-02-01T08:28:33;23.73;;;5.55;;
19879;SDS011;10102;50.828;4.416;2023-02-01T08:31:03;15.70;;;4.43;;
19879;SDS011;10102;50.828;4.416;2023-02-01T08:33:30;14.10;;;3.63;;
19879;SDS011;10102;50.828;4.416;2023-02-01T08:35:55;31.75;;;4.50;;
19879;SDS011;10102;50.828;4.416;2023-02-01T08:38:22;20.25;;;4.15;;
19879;SDS011;10102;50.828;4.416;2023-02-01T08:40:49;25.20;;;5.32;;
19879;SDS011;10102;50.828;4.416;2023-02-01T08:43:14;25.70;;;5.88;;
19879;SDS011;10102;50.828;4.416;2023-02-01T08:45:41;21.27;;;4.18;;
19879;SDS011;10102;50.828;4.416;2023-02-01T08:48:07;24.08;;;5.13;;
19879;SDS011;10102;50.828;4.416;2023-02-01T08:50:33;26.90;;;4.15;;
19879;SDS011;10102;50.828;4.416;2023-02-01T08:52:58;22.38;;;5.18;;
19879;SDS011;10102;50.828;4.416;2023-02-01T08:55:24;16.58;;;4.47;;
19879;SDS011;10102;50.828;4.416;2023-02-01T08:57:51;15.88;;;4.22;;
19879;SDS011;10102;50.828;4.416;2023-02-01T09:00:18;23.25;;;5.30;;
19879;SDS011;10102;50.828;4.416;2023-02-01T09:02:44;24.52;;;4.85;;
19879;SDS011;10102;50.828;4.416;2023-02-01T09:05:10;21.75;;;4.43;;
19879;SDS011;10102;50.828;4.416;2023-02-01T09:07:38;18.55;;;5.22;;
19879;SDS011;10102;50.828;4.416;2023-02-01T09:10:04;26.52;;;5.05;;
19879;SDS011;10102;50.828;4.416;2023-02-01T09:12:30;29.55;;;4.82;;
19879;SDS011;10102;50.828;4.416;2023-02-01T09:14:59;23.67;;;5.57;;
19879;SDS011;10102;50.828;4.416;2023-02-01T09:17:29;15.48;;;4.93;;
19879;SDS011;10102;50.828;4.416;2023-02-01T09:19:55;24.55;;;4.70;;
19879;SDS011;10102;50.828;4.416;2023-02-01T09:22:20;30.30;;;4.82;;
19879;SDS011;10102;50.828;4.416;2023-02-01T09:24:46;24.65;;;4.63;;
19879;SDS011;10102;50.828;4.416;2023-02-01T09:27:12;27.35;;;4.30;;
19879;SDS011;10102;50.828;4.416;2023-02-01T09:29:38;25.98;;;5.13;;
19879;SDS011;10102;50.828;4.416;2023-02-01T09:32:04;26.90;;;5.03;;
19879;SDS011;10102;50.828;4.416;2023-02-01T09:34:31;38.45;;;4.93;;
19879;SDS011;10102;50.828;4.416;2023-02-01T09:36:58;23.50;;;4.50;;
19879;SDS011;10102;50.828;4.416;2023-02-01T09:39:24;14.27;;;4.40;;
19879;SDS011;10102;50.828;4.416;2023-02-01T09:44:49;18.83;;;4.40;;
19879;SDS011;10102;50.828;4.416;2023-02-01T09:47:24;23.23;;;4.85;;
19879;SDS011;10102;50.828;4.416;2023-02-01T09:49:55;20.08;;;4.63;;
19879;SDS011;10102;50.828;4.416;2023-02-01T09:52:31;20.45;;;5.22;;
19879;SDS011;10102;50.828;4.416;2023-02-01T09:55:16;24.08;;;4.20;;
19879;SDS011;10102;50.828;4.416;2023-02-01T09:57:57;22.63;;;4.43;;
19879;SDS011;10102;50.828;4.416;2023-02-01T10:00:31;13.75;;;4.10;;
19879;SDS011;10102;50.828;4.416;2023-02-01T10:03:00;20.85;;;4.65;;
19879;SDS011;10102;50.828;4.416;2023-02-01T10:11:13;20.88;;;4.53;;
19879;SDS011;10102;50.828;4.416;2023-02-01T10:13:46;22.70;;;4.13;;
19879;SDS011;10102;50.828;4.416;2023-02-01T10:19:20;21.83;;;4.68;;
19879;SDS011;10102;50.828;4.416;2023-02-01T10:22:43;13.35;;;3.75;;
19879;SDS011;10102;50.828;4.416;2023-02-01T10:25:08;16.23;;;3.05;;
19879;SDS011;10102;50.828;4.416;2023-02-01T10:27:38;16.17;;;3.65;;
19879;SDS011;10102;50.828;4.416;2023-02-01T10:30:18;17.55;;;3.55;;
19879;SDS011;10102;50.828;4.416;2023-02-01T10:33:04;17.00;;;3.75;;
19879;SDS011;10102;50.828;4.416;2023-02-01T10:35:53;11.77;;;3.40;;
19879;SDS011;10102;50.828;4.416;2023-02-01T10:38:27;16.85;;;3.30;;
19879;SDS011;10102;50.828;4.416;2023-02-01T10:40:55;16.27;;;2.97;;
19879;SDS011;10102;50.828;4.416;2023-02-01T10:43:37;14.10;;;3.42;;
19879;SDS011;10102;50.828;4.416;2023-02-01T10:46:04;16.17;;;3.17;;
19879;SDS011;10102;50.828;4.416;2023-02-01T10:48:31;14.80;;;2.97;;
19879;SDS011;10102;50.828;4.416;2023-02-01T10:51:08;11.50;;;3.22;;
19879;SDS011;10102;50.828;4.416;2023-02-01T10:56:14;9.57;;;3.08;;
19879;SDS011;10102;50.828;4.416;2023-02-01T10:58:46;10.00;;;2.50;;
19879;SDS011;10102;50.828;4.416;2023-02-01T11:01:21;12.68;;;2.88;;
19879;SDS011;10102;50.828;4.416;2023-02-01T11:04:00;10.20;;;2.42;;
19879;SDS011;10102;50.828;4.416;2023-02-01T11:06:37;25.95;;;3.70;;
19879;SDS011;10102;50.828;4.416;2023-02-01T11:11:32;14.05;;;3.17;;
19879;SDS011;10102;50.828;4.416;2023-02-01T11:14:16;18.83;;;3.67;;
19879;SDS011;10102;50.828;4.416;2023-02-01T11:16:47;12.45;;;3.53;;
19879;SDS011;10102;50.828;4.416;2023-02-01T11:19:17;14.45;;;3.08;;
19879;SDS011;10102;50.828;4.416;2023-02-01T11:21:48;10.88;;;2.70;;
19879;SDS011;10102;50.828;4.416;2023-02-01T11:24:37;11.95;;;2.72;;
19879;SDS011;10102;50.828;4.416;2023-02-01T11:27:05;10.43;;;2.35;;
19879;SDS011;10102;50.828;4.416;2023-02-01T11:29:42;12.80;;;2.80;;
19879;SDS011;10102;50.828;4.416;2023-02-01T11:32:11;14.30;;;2.50;;
19879;SDS011;10102;50.828;4.416;2023-02-01T11:34:43;16.10;;;3.22;;
19879;SDS011;10102;50.828;4.416;2023-02-01T11:40:22;11.57;;;2.47;;
19879;SDS011;10102;50.828;4.416;2023-02-01T11:42:56;14.00;;;2.47;;
19879;SDS011;10102;50.828;4.416;2023-02-01T11:45:28;20.70;;;3.28;;
19879;SDS011;10102;50.828;4.416;2023-02-01T11:47:56;16.92;;;3.13;;
19879;SDS011;10102;50.828;4.416;2023-02-01T11:59:04;14.15;;;2.83;;
19879;SDS011;10102;50.828;4.416;2023-02-01T12:04:48;14.02;;;2.45;;
19879;SDS011;10102;50.828;4.416;2023-02-01T12:15:42;12.98;;;2.63;;
19879;SDS011;10102;50.828;4.416;2023-02-01T12:18:31;10.20;;;2.47;;
19879;SDS011;10102;50.828;4.416;2023-02-01T12:23:44;13.18;;;2.58;;
19879;SDS011;10102;50.828;4.416;2023-02-01T12:29:09;8.15;;;2.17;;
19879;SDS011;10102;50.828;4.416;2023-02-01T12:32:11;8.18;;;2.17;;
19879;SDS011;10102;50.828;4.416;2023-02-01T12:35:20;10.85;;;2.40;;
19879;SDS011;10102;50.828;4.416;2023-02-01T12:40:54;10.02;;;2.65;;
19879;SDS011;10102;50.828;4.416;2023-02-01T12:46:09;11.15;;;2.22;;
19879;SDS011;10102;50.828;4.416;2023-02-01T12:51:20;8.20;;;2.10;;
19879;SDS011;10102;50.828;4.416;2023-02-01T12:53:51;15.63;;;2.20;;
19879;SDS011;10102;50.828;4.416;2023-02-01T13:03:26;6.18;;;1.98;;
19879;SDS011;10102;50.828;4.416;2023-02-01T13:05:59;11.82;;;1.98;;
19879;SDS011;10102;50.828;4.416;2023-02-01T13:08:43;11.20;;;2.22;;
19879;SDS011;10102;50.828;4.416;2023-02-01T13:11:29;6.70;;;2.10;;
19879;SDS011;10102;50.828;4.416;2023-02-01T13:17:26;7.78;;;1.77;;
19879;SDS011;10102;50.828;4.416;2023-02-01T13:19:58;8.13;;;2.03;;
19879;SDS011;10102;50.828;4.416;2023-02-01T13:27:35;9.75;;;2.17;;
19879;SDS011;10102;50.828;4.416;2023-02-01T13:30:06;9.57;;;2.13;;
19879;SDS011;10102;50.828;4.416;2023-02-01T13:41:09;14.30;;;1.98;;
19879;SDS011;10102;50.828;4.416;2023-02-01T13:43:54;6.95;;;1.50;;
19879;SDS011;10102;50.828;4.416;2023-02-01T13:46:23;12.45;;;1.50;;
19879;SDS011;10102;50.828;4.416;2023-02-01T13:48:50;8.52;;;1.63;;
19879;SDS011;10102;50.828;4.416;2023-02-01T13:51:36;19.70;;;2.45;;
19879;SDS011;10102;50.828;4.416;2023-02-01T13:54:24;10.45;;;2.42;;
19879;SDS011;10102;50.828;4.416;2023-02-01T13:56:58;15.13;;;2.80;;
19879;SDS011;10102;50.828;4.416;2023-02-01T14:05:11;11.35;;;3.08;;
19879;SDS011;10102;50.828;4.416;2023-02-01T14:18:54;10.85;;;2.47;;
19879;SDS011;10102;50.828;4.416;2023-02-01T14:21:28;12.40;;;2.47;;
19879;SDS011;10102;50.828;4.416;2023-02-01T14:23:59;11.27;;;2.03;;
19879;SDS011;10102;50.828;4.416;2023-02-01T14:31:48;6.38;;;2.10;;
19879;SDS011;10102;50.828;4.416;2023-02-01T14:34:21;7.55;;;1.95;;
19879;SDS011;10102;50.828;4.416;2023-02-01T14:37:08;8.85;;;2.50;;
19879;SDS011;10102;50.828;4.416;2023-02-01T14:42:19;9.45;;;2.20;;
19879;SDS011;10102;50.828;4.416;2023-02-01T14:47:44;11.88;;;2.83;;
19879;SDS011;10102;50.828;4.416;2023-02-01T14:50:44;15.57;;;2.97;;
19879;SDS011;10102;50.828;4.416;2023-02-01T14:55:45;10.40;;;2.30;;
19879;SDS011;10102;50.828;4.416;2023-02-01T15:04:12;15.00;;;2.92;;
19879;SDS011;10102;50.828;4.416;2023-02-01T15:06:45;11.07;;;2.88;;
19879;SDS011;10102;50.828;4.416;2023-02-01T15:11:56;10.98;;;2.25;;
19879;SDS011;10102;50.828;4.416;2023-02-01T15:14:25;12.75;;;2.55;;
19879;SDS011;10102;50.828;4.416;2023-02-01T15:16:53;10.75;;;2.45;;
19879;SDS011;10102;50.828;4.416;2023-02-01T15:19:25;15.05;;;2.67;;
19879;SDS011;10102;50.828;4.416;2023-02-01T15:21:55;14.10;;;2.65;;
19879;SDS011;10102;50.828;4.416;2023-02-01T15:24:31;14.38;;;2.42;;
19879;SDS011;10102;50.828;4.416;2023-02-01T15:27:03;18.02;;;2.97;;
19879;SDS011;10102;50.828;4.416;2023-02-01T15:29:31;15.48;;;3.25;;
19879;SDS011;10102;50.828;4.416;2023-02-01T15:31:58;12.55;;;2.20;;
19879;SDS011;10102;50.828;4.416;2023-02-01T15:34:43;20.55;;;3.15;;
19879;SDS011;10102;50.828;4.416;2023-02-01T15:37:13;16.65;;;3.47;;
19879;SDS011;10102;50.828;4.416;2023-02-01T15:42:48;15.98;;;2.97;;
19879;SDS011;10102;50.828;4.416;2023-02-01T15:45:20;19.15;;;3.42;;
19879;SDS011;10102;50.828;4.416;2023-02-01T15:47:51;9.65;;;2.42;;
19879;SDS011;10102;50.828;4.416;2023-02-01T15:50:20;12.90;;;3.63;;
19879;SDS011;10102;50.828;4.416;2023-02-01T15:52:48;13.00;;;2.92;;
19879;SDS011;10102;50.828;4.416;2023-02-01T15:55:20;16.95;;;3.42;;
19879;SDS011;10102;50.828;4.416;2023-02-01T15:57:47;16.38;;;3.40;;
19879;SDS011;10102;50.828;4.416;2023-02-01T16:00:21;18.38;;;3.22;;
19879;SDS011;10102;50.828;4.416;2023-02-01T16:02:53;12.88;;;3.53;;
19879;SDS011;10102;50.828;4.416;2023-02-01T16:05:35;10.10;;;2.63;;
19879;SDS011;10102;50.828;4.416;2023-02-01T16:10:41;10.82;;;3.03;;
19879;SDS011;10102;50.828;4.416;2023-02-01T16:13:10;9.50;;;2.95;;
19879;SDS011;10102;50.828;4.416;2023-02-01T16:15:37;11.30;;;2.60;;
19879;SDS011;10102;50.828;4.416;2023-02-01T16:18:05;10.70;;;2.60;;
19879;SDS011;10102;50.828;4.416;2023-02-01T16:20:37;11.52;;;2.85;;
19879;SDS011;10102;50.828;4.416;2023-02-01T16:23:05;14.88;;;3.13;;
19879;SDS011;10102;50.828;4.416;2023-02-01T16:25:32;19.30;;;3.28;;
19879;SDS011;10102;50.828;4.416;2023-02-01T16:27:58;11.18;;;3.17;;
19879;SDS011;10102;50.828;4.416;2023-02-01T16:30:28;8.70;;;3.00;;
19879;SDS011;10102;50.828;4.416;2023-02-01T16:32:54;14.25;;;3.25;;
19879;SDS011;10102;50.828;4.416;2023-02-01T16:35:26;15.90;;;3.28;;
19879;SDS011;10102;50.828;4.416;2023-02-01T16:37:54;10.55;;;3.13;;
19879;SDS011;10102;50.828;4.416;2023-02-01T16:40:21;14.38;;;3.53;;
19879;SDS011;10102;50.828;4.416;2023-02-01T16:42:49;16.50;;;3.17;;
19879;SDS011;10102;50.828;4.416;2023-02-01T16:45:16;14.23;;;3.20;;
19879;SDS011;10102;50.828;4.416;2023-02-01T16:47:53;8.68;;;2.85;;
19879;SDS011;10102;50.828;4.416;2023-02-01T16:50:23;11.82;;;2.97;;
19879;SDS011;10102;50.828;4.416;2023-02-01T16:52:52;19.20;;;3.38;;
19879;SDS011;10102;50.828;4.416;2023-02-01T16:55:18;14.23;;;3.03;;
19879;SDS011;10102;50.828;4.416;2023-02-01T16:57:46;13.57;;;2.88;;
19879;SDS011;10102;50.828;4.416;2023-02-01T17:00:12;15.18;;;3.13;;
19879;SDS011;10102;50.828;4.416;2023-02-01T17:02:44;16.50;;;3.17;;
19879;SDS011;10102;50.828;4.416;2023-02-01T17:05:10;13.80;;;3.40;;
19879;SDS011;10102;50.828;4.416;2023-02-01T17:07:37;17.60;;;3.45;;
19879;SDS011;10102;50.828;4.416;2023-02-01T17:10:05;16.23;;;3.55;;
19879;SDS011;10102;50.828;4.416;2023-02-01T17:12:41;11.57;;;3.58;;
19879;SDS011;10102;50.828;4.416;2023-02-01T17:15:07;13.55;;;3.08;;
19879;SDS011;10102;50.828;4.416;2023-02-01T17:17:35;20.77;;;3.50;;
19879;SDS011;10102;50.828;4.416;2023-02-01T17:20:03;20.20;;;4.00;;
19879;SDS011;10102;50.828;4.416;2023-02-01T17:22:33;20.25;;;3.88;;
19879;SDS011;10102;50.828;4.416;2023-02-01T17:25:01;19.40;;;3.45;;
19879;SDS011;10102;50.828;4.416;2023-02-01T17:27:26;14.75;;;3.00;;
19879;SDS011;10102;50.828;4.416;2023-02-01T17:29:55;13.73;;;3.78;;
19879;SDS011;10102;50.828;4.416;2023-02-01T17:32:22;12.95;;;3.42;;
19879;SDS011;10102;50.828;4.416;2023-02-01T17:34:50;19.48;;;4.32;;
19879;SDS011;10102;50.828;4.416;2023-02-01T17:39:51;19.27;;;4.05;;
19879;SDS011;10102;50.828;4.416;2023-02-01T17:42:19;11.75;;;3.88;;
19879;SDS011;10102;50.828;4.416;2023-02-01T17:44:48;18.40;;;4.13;;
19879;SDS011;10102;50.828;4.416;2023-02-01T17:47:19;11.23;;;4.07;;
19879;SDS011;10102;50.828;4.416;2023-02-01T17:49:46;16.02;;;4.15;;
19879;SDS011;10102;50.828;4.416;2023-02-01T17:52:16;20.10;;;3.47;;
19879;SDS011;10102;50.828;4.416;2023-02-01T17:54:43;17.65;;;3.95;;